Aérodrome :
LOGIN :

S'inscrire | Disclaimer

   EN    FR    IT 

 










Légende :    VFR   VFR Marginal   IFR   IFR Intensif   IFR Très Intensif
Visi : 
Plafond : 
>= 8 km
>= 3000ft
5 à 8 km
1000 à 3000 ft
1500m à 5 km
500 à 1000 ft
800 à 1500m
200 à 500 ft
< 800m
< 200 ft
Symboles :   Orages  Brouillard  Fortes neiges  Fortes précipitations  Vent > 20 kt
SIGMETs :   Divers  Orages  Givrage  Turbulence  Onde Orograph.  Cendres Volcan.







- Altitude de l'aérodrome : 56 ft
- Code IATA : BZR
- Voir les cartes d'approche


LFMU - Beziers / Vias

DERNIER METAR :
  • 142200Z AUTO 08006KT 7000 BKN008 OVC047 17/15 Q1023

METARs EXPIRÉS :
  • 142130Z AUTO 07003KT 8000 BKN008 OVC041 17/15 Q1023
  • 142100Z AUTO 08004KT 9000 FEW010 OVC041 17/15 Q1023
  • 142030Z AUTO 11005KT 9999 BKN009 OVC042 17/15 Q1023
  • 142000Z AUTO 12006KT 9999 BKN010 OVC014 17/16 Q1024
  • 141930Z AUTO 12006KT 090V170 9999 OVC012 17/15 Q1024 TEMPO RA BKN008

TAF AMD TAF LFMU
Valide du 14 à 17h jusqu'au 15 à 15h UTC


141741Z 1417/1515 12010KT 9999 FEW036
BECMG 1417/1419 BKN010
TEMPO 1419/1515 RA BKN008
BECMG 1508/1510 08010KT
ATIS : +33 4 67 90 88 88
Pas de NOTAMs connus pour ce terrain.



MET'MAP, la Météo Aéronautique d'un coup d'oeil ! - Copyright ORBIFLY Décembre 2007 - Disclaimer

ORBIFLY MET'MAP TEAM :

Programmation & Développement : Alexandra Zaïnal
Conception & Développement : Baudouin d'Aumeries
Co-Programmation & Développement : Marc-Olivier Méhu
Soutien technique & logistique : Manuel Goepfert

Contact : metmap@orbifly.com




SOURCES & CREDITS :

   NOAA